Pagrindinis puslapis
METAR-TAF:

METAR-TAF

Oro uostai :

Bengalūras, Indija

platuma: 12-57-00N, ilguma: 077-40-06E, Aukštis: 888 m

Dabartinis oras

Ataskaita buvo paskelbta 4 valandos ir 3 minutes, ne 18:00 UTC
Vėjas 8 kt iš Rytų
Temperatūra 25°C
Drėgmė 79%
Slėgis 1017 hPa
Matomumas: 6000 m
Išsisklaidę debesys ne aukštis 1500 ft

METAR: VOBG 121800Z 09008KT 6000 SCT015 25/21 Q1017 NOSIG

Laikas: 03:33 (22:03 UTC)

Prognozė

Ataskaita buvo paskelbta 2 valandos ir 3 minutes, ne 20:00 UTC
Prognozė galioja nuo 12 metu 21 UTC su 13 metu 06 UTC
Vėjas 2 kt nuo kintamojo kryptimis
Matomumas: 6000 m
Išsisklaidę debesys ne aukštis 1200 ft
Laikinai
nuo 13 metu 00 UTC su 13 metu 03 UTC
Matomumas: 3000 m
Išsisklaidę debesys ne aukštis 1000 ft
rūkana
Tapsmas
nuo 13 metu 03 UTC su 13 metu 04 UTC
Vėjas 10 kt iš Rytų/Pietryčių

TAF: VOBG 122000Z 1221/1306 VRB02KT 6000 SCT012 TEMPO 1300/1303 3000 BR SCT010 BECMG 1303/1304 11010KT

Orai ataskaitas ir orų prognozės (METAR, TAF).

turimą stotys yra geltonos ir raudonos taškus žemėlapyje.

Perkelti pele per norėdami pamatyti stoties vardą.

Tada spustelėkite, norėdami matyti oro stebėjimo ir prognozės.

Norėdami pakeisti žemėlapį: spustelėkite ant žalios mygtukų su juodo kryžiaus žemyn,; žalią mygtuką su brūkšneliu, jei norite nutolinti; arba žalių rodyklių gretimoms žemėlapius.


METAR-TAF: